Aviation Digital Data Service (ADDS)

Output produced by METARs form (1842 UTC 19 February 2017)
found at http://aviationweather.gov/adds/metars/
 
KMPV 191740Z 1918/2018 28014G22KT P6SM BKN045 
     FM200000 30009KT P6SM BKN030 
     FM200300 32009KT P6SM VCSH BKN025 
     FM201000 32009KT P6SM BKN045 
     FM201400 33012KT P6SM SCT120